Archival Weather

Chicago O'Hare International

Chicago, Illinois (KORD)

Report from: Saturday, May 20, 2023 4:51 AM CDT
Current time: Sunday, February 25, 2024 4:29 PM CST

Current weather – Weather history – Daily summaries
Weather forecast

Temperature8.9°C (48.0°F)
Wind chill6.4°C (43.5°F)
Dew point4.4°C (39.9°F)
Winds 9 kts (4.6 m/s, 10.4 mph) North (360°)
Visibility10 mi. (16.1 km)
Clouds Sky clear
Altimeter30.11 in.Hg (1020 mB)
Relative humidity73 %
Density altitude-817 ft. (-249 m)
Sea-level pressure101.9 kPa (1019 mB, 30.10 in.Hg)
Remarks Automated weather observing station with precipitation discriminator
Flight conditions Visual Meteorological Conditions
Raw dataKORD 200951Z 36009KT 10SM CLR 09/04 A3011 RMK AO2 SLP194 T00890044
An error has occurred. This application may no longer respond until reloaded. Reload 🗙